Accueil
METAR-TAF:

METAR-TAF

Aéroports :

Saint-Denis, Réunion

Aéroport de La Réunion Roland-Garros

latitude: 20-53S, longitude: 055-31E, altitude: 21 m

Observation

Le bulletin a été fait il y a 1 heure et 14 minutes, à 04:00 UTC
Vent 5 kt de sud
Température 18°C
Humidité 83%
Pression 1018 hPa
Visibilité 10 km ou plus
pas de nuages en-dessous de 1500 mètres et pas de cumulonimbus.

METAR: FMEE 260400Z 17005KT CAVOK 18/15 Q1018 NOSIG

Heure: 09:14 (05:14 UTC)


TAF: absent

Observations et prévisions météorologiques de plus de 4000 aéroports (messages METAR et TAF).

Les stations disponibles sont représentées par des disques jaunes et rouges sur la carte.

Passer la souris dessus pour voir le nom de la station.

Cliquer dessus pour voir les observations et prévisions météorologiques.

Pour changer de carte: cliquez sur les boutons verts avec une croix noire pour zoomer, sur le bouton vert avec un tiret pour effectuer un zoom arrière, ou sur les flèches vertes pour les cartes adjacentes.


METAR-TAF: